Flight Track Log - Related Links

Times and Time Zones

All times are in EDT time to prevent confusion due to time zone crossing. See the TYR793 flight status page for this flight to view local times or setup timezone preferences in your user account.

Time Position Orientation Groundspeed Altitude Reporting Facility
EDT Latitude Longitude Course Direction KTS MPH feet Rate Location/Type
Tue 11:36:00 AM 47.8992 16.8736 136° Southeast  Level Estimated
Tue 11:37:00 AM 47.8287 16.9743 136° Southeast  Level Estimated
Tue 11:38:00 AM 47.7580 17.0748 136° Southeast  Level Estimated
Tue 11:39:00 AM 47.6873 17.1749 136° Southeast  Level Estimated
Tue 11:40:00 AM 47.6165 17.2749 136° Southeast  Level Estimated
Tue 11:41:00 AM 47.5456 17.3745 136° Southeast  Level Estimated
Tue 11:42:00 AM 47.4747 17.4739 137° Southeast  Level Estimated
Tue 11:43:00 AM 47.4036 17.5730 137° Southeast  Level Estimated
Tue 11:44:00 AM 47.3325 17.6718 137° Southeast  Level Estimated
Tue 11:45:00 AM 47.2612 17.7704 137° Southeast  Level Estimated
Tue 11:46:00 AM 47.1899 17.8687 137° Southeast  Level Estimated
Tue 11:47:00 AM 47.1185 17.9667 137° Southeast  Level Estimated
Tue 11:48:00 AM 47.0470 18.0645 137° Southeast  Level Estimated
Tue 11:49:00 AM 46.9755 18.1621 137° Southeast  Level Estimated
Tue 11:50:00 AM 46.9038 18.2593 137° Southeast  Level Estimated
Tue 11:51:00 AM 46.8321 18.3563 137° Southeast  Level Estimated
Tue 11:52:00 AM 46.7603 18.4531 137° Southeast  Level Estimated
Tue 11:53:00 AM 46.6884 18.5495 137° Southeast  Level Estimated
Tue 11:54:00 AM 46.6164 18.6458 137° Southeast  Level Estimated
Tue 11:55:00 AM 46.5444 18.7417 137° Southeast  Level Estimated
Tue 11:56:00 AM 46.4723 18.8375 138° Southeast  Level Estimated
Tue 11:57:00 AM 46.4000 18.9329 138° Southeast  Level Estimated
Tue 11:58:00 AM 46.3278 19.0281 138° Southeast  Level Estimated
Tue 11:59:00 AM 46.2554 19.1231 138° Southeast  Level Estimated
Tue 12:00:00 PM 46.1829 19.2178 138° Southeast  Level Estimated
Tue 12:01:00 PM 46.1104 19.3123 138° Southeast  Level Estimated
Tue 12:02:00 PM 46.0378 19.4065 138° Southeast  Level Estimated
Tue 12:03:00 PM 45.9651 19.5004 138° Southeast  Level Estimated
Tue 12:04:00 PM 45.8924 19.5941 138° Southeast  Level Estimated
Tue 12:05:00 PM 45.8195 19.6876 138° Southeast  Level Estimated
Tue 12:06:00 PM 45.7466 19.7808 138° Southeast  Level Estimated
Tue 12:07:00 PM 45.6736 19.8738 138° Southeast  Level Estimated
Tue 12:08:00 PM 45.6006 19.9666 138° Southeast  Level Estimated
Tue 12:09:00 PM 45.5274 20.0591 138° Southeast  Level Estimated
Tue 12:10:00 PM 45.4542 20.1513 139° Southeast  Level Estimated
Tue 12:11:00 PM 45.3809 20.2433 139° Southeast  Level Estimated
Tue 12:12:00 PM 45.3076 20.3351 139° Southeast  Level Estimated
Tue 12:13:00 PM 45.2341 20.4267 139° Southeast  Level Estimated
Tue 12:14:00 PM 45.1606 20.5180 139° Southeast  Level Estimated
Tue 12:15:00 PM 45.0871 20.6090 139° Southeast  Level Estimated
Tue 12:16:00 PM 45.0134 20.6999 139° Southeast  Level Estimated
Tue 12:17:00 PM 44.9397 20.7905 139° Southeast  Level Estimated
Tue 12:18:00 PM 44.8659 20.8809 139° Southeast  Level Estimated
Tue 12:19:00 PM 44.7920 20.9710 139° Southeast  Level Estimated
Tue 12:20:00 PM 44.7181 21.0609 139° Southeast  Level Estimated
Tue 12:21:00 PM 44.6441 21.1506 139° Southeast  Level Estimated
Tue 12:22:00 PM 44.5700 21.2400 139° Southeast  Level Estimated
Tue 12:23:00 PM 44.4959 21.3293 139° Southeast  Level Estimated
Tue 12:24:00 PM 44.4217 21.4183 139° Southeast  Level Estimated
Tue 12:25:00 PM 44.3474 21.5070 139° Southeast  Level Estimated
Tue 12:26:00 PM 44.2731 21.5956 140° Southeast  Level Estimated
Tue 12:27:00 PM 44.1987 21.6839 140° Southeast  Level Estimated
Tue 12:28:00 PM 44.1242 21.7720 140° Southeast  Level Estimated
Tue 12:29:00 PM 44.0496 21.8599 140° Southeast  Level Estimated
Tue 12:30:00 PM 43.9750 21.9475 140° Southeast  Level Estimated
Tue 12:31:00 PM 43.9003 22.0350 140° Southeast  Level Estimated
Tue 12:32:00 PM 43.8255 22.1222 140° Southeast  Level Estimated
Tue 12:33:00 PM 43.7507 22.2092 140° Southeast  Level Estimated
Tue 12:34:00 PM 43.6758 22.2960 140° Southeast  Level Estimated
Tue 12:35:00 PM 43.6009 22.3825 140° Southeast  Level Estimated
Tue 12:36:00 PM 43.5259 22.4689 140° Southeast  Level Estimated
Tue 12:37:00 PM 43.4508 22.5550 140° Southeast  Level Estimated
Tue 12:38:00 PM 43.3756 22.6409 140° Southeast  Level Estimated
Tue 12:39:00 PM 43.3004 22.7267 140° Southeast  Level Estimated
Tue 12:40:00 PM 43.2251 22.8122 140° Southeast  Level Estimated
Tue 12:41:00 PM 43.1498 22.8974 140° Southeast  Level Estimated
Tue 12:42:00 PM 43.0744 22.9825 140° Southeast  Level Estimated
Tue 12:43:00 PM 42.9989 23.0674 141° Southeast  Level Estimated
Tue 12:44:00 PM 42.9234 23.1521 141° Southeast  Level Estimated
Tue 12:45:00 PM 42.8478 23.2365 141° Southeast  Level Estimated
Tue 12:46:00 PM 42.7722 23.3207 141° Southeast  Level Estimated
Tue 12:47:00 PM 42.6964 23.4048 141° Southeast  Level Estimated
Tue 12:48:00 PM 42.6952 23.4062 141° Southeast  Level Estimated
Tue 12:49:00 PM 42.6952 23.4062 331° Northwest  Level Estimated
Tue 12:50:00 PM 42.6952 23.4062 331° Northwest  Level Estimated
Tue 12:51:00 PM 42.6952 23.4062 331° Northwest  Level Estimated
Tue 12:52:00 PM 42.6952 23.4062 331° Northwest  Level Estimated
Tue 12:53:00 PM 42.6952 23.4062 331° Northwest  Level Estimated
Tue 12:54:00 PM 42.6952 23.4062 331° Northwest  Level Estimated
Tue 12:55:00 PM 42.6952 23.4062 331° Northwest  Level Estimated
Tue 12:56:00 PM 42.6952 23.4062 331° Northwest  Level Estimated
Tue 12:57:00 PM 42.6952 23.4062 331° Northwest  Level Estimated
Tue 12:58:00 PM 42.6952 23.4062 331° Northwest  Level Estimated
Tue 12:59:00 PM 42.6952 23.4062 331° Northwest  Level Estimated
Tue 01:00:00 PM 42.6952 23.4062 331° Northwest  Level Estimated
Tue 01:01:00 PM 42.6952 23.4062 331° Northwest  Level Estimated
Tue 01:02:00 PM 42.6952 23.4062 331° Northwest  Level Estimated
Tue 01:03:00 PM 42.6952 23.4062 331° Northwest  Level Estimated

Login

Don't have an account? Register now (free) for customized features, flight alerts, and more!